Data ze zpráv METAR

Na této stránce "Data ze zpráv METAR" si můžete prohlédnout aktuální data o počasí z českých letišť.

LKKB - Kbely, Czech Republic
Distance from station: JJZ 98km
Aktualizováno v: 23/10/2018 04:00
Oblačno
Oblačno
 Vítr od Z
Vítr: Z 11 km/h
Teplota vzduchu: 6°C
Wind Chill: 4°C
Rosný bod: 3°C
Vlhkost: 81%
Tlak vzduchu: 1027 hPa
Clouds: Oblačno
Visibility: 10 km
Cloud details: Oblačno 1311 m
2018/10/23 02:00 LKKB 230200Z 26006KT 9999 BKN043 06/03 Q1027 NOSIG
LKPR - Prague/Ruzyne, Czech Republic
Distance from station: JJZ 108km
Aktualizováno v: 23/10/2018 04:30
Oblačno
Oblačno
 Vítr od ZJZ
Vítr: ZJZ 15 km/h
Teplota vzduchu: 6°C
Wind Chill: 3°C
Rosný bod: 3°C
Vlhkost: 81%
Tlak vzduchu: 1026 hPa
Clouds: Oblačno
Visibility: 10 km
Cloud details: Oblačno 1158 m
2018/10/23 02:30 LKPR 230230Z 24008KT 9999 BKN038 06/03 Q1026 NOSIG
 
LKPD - Pardubice, Czech Republic
Distance from station: JJV 111km
Aktualizováno v: 23/10/2018 04:00
Zataženo
Zataženo
 Vítr od ZSZ
Vítr: ZSZ 11 km/h
Teplota vzduchu: 7°C
Wind Chill: 5°C
Rosný bod: 5°C
Vlhkost: 87%
Tlak vzduchu: 1026 hPa
Clouds: Zataženo
Visibility: 10 km
Cloud details: Zataženo 1402 m
2018/10/23 02:00 LKPD 230200Z 30006KT 9999 OVC046 07/05 Q1026
LKCV - Caslav, Czech Republic
Distance from station: JJV 113km
Aktualizováno v: 23/10/2018 04:00
Polojasno
Polojasno
 Vítr od Z
Vítr: Z 7 km/h
Teplota vzduchu: 5°C
Wind Chill: 3°C
Rosný bod: 4°C
Vlhkost: 93%
Tlak vzduchu: 1027 hPa
Clouds: Polojasno
Visibility: 10 km
Cloud details: Polojasno 1524 m
2018/10/23 02:00 LKCV 230200Z 26004KT 9999 SCT050 05/04 Q1027 NOSIG RMK BLU BLU
 
LKKV - Karlovy Vary, Czech Republic
Distance from station: ZJZ 173km
Aktualizováno v: 23/10/2018 04:00
Oblačno
Oblačno
 Vítr od Z
Vítr: Z 11 km/h
Teplota vzduchu: 4°C
Wind Chill: 1°C
Rosný bod: 3°C
Vlhkost: 93%
Tlak vzduchu: 1027 hPa
Clouds: Oblačno
Visibility: 10 km
Cloud details: Polojasno 366 m
Oblačno 671 m
2018/10/23 02:00 LKKV 230200Z 26006KT 9999 SCT012 BKN022 04/03 Q1027
LKLN - Plzen Line, Czech Republic
Distance from station: JZ 189km
Aktualizováno v: 23/10/2018 04:00
Few Clouds
Few Clouds
 Vítr od ZSZ
Vítr: ZSZ 7 km/h
Teplota vzduchu: 5°C
Wind Chill: 3°C
Rosný bod: 3°C
Vlhkost: 87%
Tlak vzduchu: 1028 hPa
Clouds: Few Clouds
Visibility: 10 km
Cloud details: Few Clouds 1036 m
2018/10/23 02:00 LKLN 230200Z AUTO 29004KT 260V330 9999 FEW034 05/03 Q1028
 
LKNA - Namest, Czech Republic
Distance from station: JJV 209km
Aktualizováno v: 23/10/2018 04:00
Zataženo
Zataženo
 Vítr od SZ
Vítr: SZ 24 km/h
Teplota vzduchu: 7°C
Wind Chill: 3°C
Rosný bod: 4°C
Vlhkost: 81%
Tlak vzduchu: 1025 hPa
Clouds: Zataženo
Visibility: 10 km
Cloud details: Few Clouds 335 m
Zataženo 1036 m
2018/10/23 02:00 LKNA 230200Z 32013KT 9999 FEW011 OVC034 07/04 Q1025
LKTB - Brno/Turany, Czech Republic
Distance from station: JJV 230km
Aktualizováno v: 23/10/2018 04:30
Oblačno
Oblačno
 Vítr od SSZ
Vítr: SSZ 13 km/h
Teplota vzduchu: 9°C
Wind Chill: 7°C
Rosný bod: 5°C
Vlhkost: 76%
Tlak vzduchu: 1026 hPa
Clouds: Oblačno
Visibility: 10 km
Cloud details: Few Clouds 701 m
Oblačno 1311 m
2018/10/23 02:30 LKTB 230230Z 34007KT 9999 FEW023 BKN043 09/05 Q1026 NOSIG